createdAt,value
2023-04-08T00:01:27.332Z,6.20
2023-04-08T00:03:56.443Z,5.10
2023-04-08T00:06:27.367Z,5.80
2023-04-08T00:08:56.114Z,5.20
2023-04-08T00:11:24.927Z,5.90
2023-04-08T00:13:53.717Z,5.20
2023-04-08T00:16:22.797Z,6.00
2023-04-08T00:18:52.312Z,4.60
2023-04-08T00:21:21.431Z,5.30
2023-04-08T00:23:50.245Z,6.20
2023-04-08T00:26:19.934Z,5.90
2023-04-08T00:28:49.373Z,5.00
2023-04-08T00:31:18.505Z,6.60
2023-04-08T00:33:47.231Z,7.30
2023-04-08T00:36:16.197Z,7.40
2023-04-08T00:38:45.361Z,5.30
2023-04-08T00:41:14.621Z,5.90
2023-04-08T00:43:43.530Z,5.60
2023-04-08T00:46:12.417Z,6.00
2023-04-08T00:48:41.270Z,7.30
2023-04-08T00:51:10.025Z,5.10
2023-04-08T00:53:38.977Z,6.10
2023-04-08T00:56:07.872Z,5.80
2023-04-08T00:58:37.210Z,5.30
2023-04-08T01:01:08.874Z,7.30
2023-04-08T01:03:43.542Z,5.30
2023-04-08T01:06:18.297Z,5.40
2023-04-08T01:08:48.274Z,5.70
2023-04-08T01:11:17.809Z,8.80
2023-04-08T01:13:46.685Z,6.80
2023-04-08T01:16:16.879Z,5.20
2023-04-08T01:18:46.611Z,6.00
2023-04-08T01:21:16.493Z,7.50
2023-04-08T01:24:17.676Z,7.10
2023-04-08T01:26:47.104Z,6.00
2023-04-08T01:29:16.718Z,6.70
2023-04-08T01:31:46.544Z,5.80
2023-04-08T01:34:15.819Z,4.90
2023-04-08T01:36:45.579Z,5.50
2023-04-08T01:39:16.675Z,6.50
2023-04-08T01:41:46.104Z,6.80
2023-04-08T01:44:15.687Z,7.60
2023-04-08T01:46:44.666Z,5.70
2023-04-08T01:49:14.704Z,6.30
2023-04-08T01:51:44.713Z,5.20
2023-04-08T01:54:13.535Z,7.40
2023-04-08T01:56:44.645Z,5.60
2023-04-08T01:59:16.829Z,6.50
2023-04-08T02:01:46.576Z,8.30
2023-04-08T02:04:15.642Z,7.00
2023-04-08T02:06:44.828Z,7.00
2023-04-08T02:09:14.060Z,5.40
2023-04-08T02:11:42.888Z,6.30
2023-04-08T02:14:11.614Z,7.00
2023-04-08T02:16:42.980Z,6.00
2023-04-08T02:19:18.803Z,5.40
2023-04-08T02:21:50.678Z,5.20
2023-04-08T02:24:21.057Z,5.70
2023-04-08T02:26:53.052Z,8.00
2023-04-08T02:29:22.061Z,6.80
2023-04-08T02:31:51.342Z,5.00
2023-04-08T02:34:21.706Z,6.90
2023-04-08T02:36:51.289Z,6.80
2023-04-08T02:39:20.082Z,5.80
2023-04-08T02:41:48.981Z,5.60
2023-04-08T02:44:17.748Z,5.80
2023-04-08T02:46:46.425Z,8.30
2023-04-08T02:49:15.264Z,6.30
2023-04-08T02:51:44.071Z,7.30
2023-04-08T02:54:12.772Z,7.70
2023-04-08T02:56:41.799Z,5.80
2023-04-08T02:59:10.505Z,6.80
2023-04-08T03:01:39.912Z,7.30
2023-04-08T03:04:08.804Z,8.10
2023-04-08T03:06:37.534Z,6.20
2023-04-08T03:09:06.298Z,7.80
2023-04-08T03:11:35.320Z,7.00
2023-04-08T03:14:04.070Z,6.30
2023-04-08T03:16:32.946Z,9.20
2023-04-08T03:19:01.762Z,6.10
2023-04-08T03:21:32.327Z,7.70
2023-04-08T03:24:01.140Z,7.20
2023-04-08T03:26:29.868Z,7.00
2023-04-08T03:28:58.530Z,8.90
2023-04-08T03:31:27.541Z,6.00
2023-04-08T03:33:56.403Z,7.40
2023-04-08T03:36:25.123Z,8.40
2023-04-08T03:38:53.944Z,6.20
2023-04-08T03:41:22.630Z,7.00
2023-04-08T03:43:51.393Z,6.30
2023-04-08T03:46:20.145Z,8.10
2023-04-08T03:48:49.139Z,6.10
2023-04-08T03:51:18.195Z,6.70
2023-04-08T03:53:48.208Z,7.00
2023-04-08T03:56:16.886Z,8.20
2023-04-08T03:58:45.629Z,8.40
2023-04-08T04:01:14.382Z,16.50
2023-04-08T04:03:43.220Z,15.20
2023-04-08T04:06:12.483Z,15.20
2023-04-08T04:08:41.277Z,21.50
2023-04-08T04:11:10.008Z,13.40
2023-04-08T04:13:38.740Z,15.10
2023-04-08T04:16:07.516Z,12.20
2023-04-08T04:18:36.325Z,13.80
2023-04-08T04:21:05.853Z,15.90
2023-04-08T04:23:34.521Z,16.70
2023-04-08T04:26:07.961Z,19.90
2023-04-08T04:28:36.865Z,17.00
2023-04-08T04:31:06.174Z,16.30
2023-04-08T04:33:34.970Z,14.20
2023-04-08T04:36:03.821Z,12.80
2023-04-08T04:38:32.773Z,14.10
2023-04-08T04:41:01.772Z,12.30
2023-04-08T04:43:30.472Z,13.10
2023-04-08T04:45:59.796Z,8.90
2023-04-08T04:48:28.499Z,9.40
2023-04-08T04:50:57.946Z,7.70
2023-04-08T04:53:26.968Z,7.70
2023-04-08T04:55:56.123Z,11.80
2023-04-08T04:58:25.480Z,7.50
2023-04-08T05:00:54.280Z,7.70
2023-04-08T05:03:23.109Z,8.80
2023-04-08T05:05:52.723Z,8.60
2023-04-08T05:08:21.852Z,9.60
2023-04-08T05:10:51.350Z,9.10
2023-04-08T05:13:20.142Z,9.80
2023-04-08T05:15:48.992Z,7.90
2023-04-08T05:18:18.169Z,7.50
2023-04-08T05:20:46.969Z,7.70
2023-04-08T05:23:15.700Z,6.60
2023-04-08T05:25:44.496Z,7.90
2023-04-08T05:28:13.244Z,7.30
2023-04-08T05:30:42.199Z,8.20
2023-04-08T05:33:11.067Z,6.50
2023-04-08T05:35:39.916Z,7.70
2023-04-08T05:38:08.671Z,10.50
2023-04-08T05:40:37.431Z,7.30
2023-04-08T05:43:06.441Z,10.70
2023-04-08T05:45:36.336Z,6.90
2023-04-08T05:48:05.165Z,8.10
2023-04-08T05:50:35.323Z,6.30
2023-04-08T05:53:04.015Z,8.70
2023-04-08T05:55:32.749Z,9.00
2023-04-08T05:58:01.602Z,10.50
2023-04-08T06:00:30.786Z,7.50
2023-04-08T06:02:59.999Z,7.60
2023-04-08T06:05:28.928Z,5.90
2023-04-08T06:07:57.652Z,7.70
2023-04-08T06:10:26.498Z,6.70
2023-04-08T06:12:55.359Z,6.10
2023-04-08T06:15:24.329Z,7.30
2023-04-08T06:17:53.075Z,6.00
2023-04-08T06:20:21.840Z,8.20
2023-04-08T06:22:50.586Z,5.50
2023-04-08T06:25:19.320Z,5.80
2023-04-08T06:27:48.525Z,6.30
2023-04-08T06:30:17.233Z,4.90
2023-04-08T06:32:47.558Z,6.40
2023-04-08T06:35:16.400Z,5.40
2023-04-08T06:37:45.303Z,8.20
2023-04-08T06:40:14.047Z,4.90
2023-04-08T06:42:44.536Z,6.30
2023-04-08T06:45:13.363Z,7.30
2023-04-08T06:47:42.761Z,6.20
2023-04-08T06:50:13.789Z,5.50
2023-04-08T06:52:44.381Z,6.40
2023-04-08T06:55:13.234Z,5.10
2023-04-08T06:57:41.951Z,6.50
2023-04-08T07:00:11.036Z,5.70
2023-04-08T07:02:39.905Z,4.60
2023-04-08T07:05:08.876Z,4.70
2023-04-08T07:07:37.667Z,4.20
2023-04-08T07:10:07.798Z,5.50
2023-04-08T07:12:38.471Z,3.80
2023-04-08T07:15:07.606Z,4.50
2023-04-08T07:17:36.978Z,5.10
2023-04-08T07:20:06.686Z,5.10
2023-04-08T07:22:35.645Z,5.60
2023-04-08T07:25:04.603Z,4.30
2023-04-08T07:27:36.582Z,4.90
2023-04-08T07:30:05.971Z,7.40
2023-04-08T07:32:34.860Z,6.30
2023-04-08T07:35:03.957Z,6.20
2023-04-08T07:37:32.754Z,6.10
2023-04-08T07:40:01.482Z,5.10
2023-04-08T07:42:30.325Z,6.60
2023-04-08T07:44:59.022Z,5.50
2023-04-08T07:47:28.238Z,5.40
2023-04-08T07:49:57.033Z,9.80
2023-04-08T07:52:26.349Z,4.40
2023-04-08T07:54:55.028Z,5.00
2023-04-08T07:57:23.965Z,5.00
2023-04-08T07:59:52.899Z,4.60
2023-04-08T08:02:21.714Z,4.60
2023-04-08T08:04:50.717Z,4.10
2023-04-08T08:07:19.531Z,4.40
2023-04-08T08:09:48.356Z,4.10
2023-04-08T08:12:17.245Z,3.40
2023-04-08T08:14:46.148Z,5.60
2023-04-08T08:17:15.041Z,3.60
2023-04-08T08:19:43.853Z,3.40
2023-04-08T08:22:12.712Z,4.10
2023-04-08T08:24:42.217Z,4.30
2023-04-08T08:27:11.728Z,10.70
2023-04-08T08:29:43.903Z,4.50
2023-04-08T08:32:14.448Z,6.70
2023-04-08T08:34:43.291Z,5.00
2023-04-08T08:37:12.193Z,6.40
2023-04-08T08:39:41.413Z,5.50
2023-04-08T08:42:20.804Z,4.50
2023-04-08T08:44:50.374Z,3.50
2023-04-08T08:47:19.371Z,4.20
2023-04-08T08:49:48.964Z,3.50
2023-04-08T08:52:18.634Z,4.30
2023-04-08T08:54:47.432Z,4.60
2023-04-08T08:57:20.135Z,3.60
2023-04-08T08:59:49.165Z,3.90
2023-04-08T09:02:25.590Z,3.60
2023-04-08T09:05:04.888Z,3.70
2023-04-08T09:07:37.392Z,3.10
2023-04-08T09:10:06.500Z,4.10
2023-04-08T09:12:35.634Z,3.00
2023-04-08T09:15:05.536Z,3.10
2023-04-08T09:17:38.313Z,4.70
2023-04-08T09:20:15.090Z,2.50
2023-04-08T09:23:02.407Z,3.30
2023-04-08T09:25:34.685Z,4.20
2023-04-08T09:28:04.328Z,2.00
2023-04-08T09:30:33.121Z,3.40
2023-04-08T09:33:07.283Z,2.20
2023-04-08T09:35:36.561Z,4.20
2023-04-08T09:38:05.322Z,2.20
2023-04-08T09:40:37.551Z,1.90
2023-04-08T09:43:07.200Z,1.60
2023-04-08T09:45:36.546Z,3.30
2023-04-08T09:48:19.147Z,2.10
2023-04-08T09:50:49.726Z,3.00
2023-04-08T09:53:18.934Z,1.60
2023-04-08T09:55:50.477Z,1.80
2023-04-08T09:58:22.735Z,2.40
2023-04-08T10:00:52.689Z,1.60
2023-04-08T10:05:51.634Z,1.80
2023-04-08T10:08:20.797Z,2.20
2023-04-08T10:10:49.660Z,2.10
2023-04-08T10:13:18.579Z,2.20
2023-04-08T10:15:49.042Z,1.50
2023-04-08T10:18:20.641Z,1.70
2023-04-08T10:20:49.649Z,1.50
2023-04-08T10:23:18.760Z,1.30
2023-04-08T10:25:48.635Z,1.80
2023-04-08T10:28:20.243Z,1.50
2023-04-08T10:30:53.125Z,1.70
2023-04-08T10:33:31.805Z,1.80
2023-04-08T10:36:11.574Z,1.80
